createdAt,value
2023-04-02T00:02:59.576Z,10.77
2023-04-02T00:08:10.287Z,12.88
2023-04-02T00:13:12.656Z,11.85
2023-04-02T00:18:22.298Z,12.50
2023-04-02T00:23:25.005Z,10.90
2023-04-02T00:28:27.510Z,10.38
2023-04-02T00:33:32.224Z,10.07
2023-04-02T00:38:36.092Z,13.65
2023-04-02T00:43:39.938Z,8.07
2023-04-02T00:48:51.652Z,11.10
2023-04-02T00:53:57.880Z,21.95
2023-04-02T00:59:01.185Z,16.13
2023-04-02T01:04:06.010Z,8.68
2023-04-02T01:09:14.653Z,5.80
2023-04-02T01:14:36.958Z,12.33
2023-04-02T01:20:07.798Z,12.27
2023-04-02T01:25:18.704Z,12.30
2023-04-02T01:30:22.294Z,8.68
2023-04-02T01:35:28.261Z,5.95
2023-04-02T01:40:33.948Z,8.63
2023-04-02T01:45:37.030Z,7.05
2023-04-02T01:50:41.975Z,9.30
2023-04-02T01:55:59.861Z,11.02
2023-04-02T02:01:24.811Z,15.20
2023-04-02T02:06:28.835Z,19.07
2023-04-02T02:11:33.889Z,17.58
2023-04-02T02:16:42.163Z,20.77
2023-04-02T02:21:52.447Z,10.35
2023-04-02T02:27:05.254Z,8.23
2023-04-02T02:32:12.129Z,8.00
2023-04-02T02:37:24.080Z,8.98
2023-04-02T02:42:39.160Z,10.40
2023-04-02T02:47:44.270Z,8.57
2023-04-02T02:52:53.620Z,10.43
2023-04-02T02:58:27.806Z,12.53
2023-04-02T03:03:41.189Z,11.15
2023-04-02T03:08:54.775Z,12.25
2023-04-02T03:14:36.951Z,10.95
2023-04-02T03:19:53.149Z,10.80
2023-04-02T03:25:00.967Z,9.47
2023-04-02T03:30:23.634Z,10.52
2023-04-02T03:35:53.929Z,9.27
2023-04-02T03:41:47.078Z,10.27
2023-04-02T03:47:01.843Z,11.93
2023-04-02T03:52:12.313Z,11.83
2023-04-02T03:57:27.415Z,9.68
2023-04-02T04:02:53.447Z,10.32
2023-04-02T04:08:03.803Z,13.35
2023-04-02T04:13:12.649Z,13.68
2023-04-02T04:18:40.266Z,10.80
2023-04-02T04:23:51.878Z,15.52
2023-04-02T04:29:14.213Z,12.73
2023-04-02T04:34:42.537Z,14.50
2023-04-02T04:40:03.309Z,12.65
2023-04-02T04:45:30.286Z,13.33
2023-04-02T04:50:39.093Z,12.60
2023-04-02T04:55:49.209Z,14.00
2023-04-02T05:01:00.504Z,14.07
2023-04-02T05:06:13.209Z,13.70
2023-04-02T05:11:32.422Z,11.47
2023-04-02T05:16:52.075Z,12.85
2023-04-02T05:22:19.504Z,13.73
2023-04-02T05:27:47.347Z,13.77
2023-04-02T05:33:18.162Z,12.07
2023-04-02T05:38:28.851Z,14.43
2023-04-02T05:43:35.119Z,16.48
2023-04-02T05:48:43.646Z,15.13
2023-04-02T05:53:59.851Z,15.27
2023-04-02T05:59:16.440Z,19.13
2023-04-02T06:04:34.609Z,15.23
2023-04-02T06:09:44.851Z,12.75
2023-04-02T06:14:48.216Z,13.43
2023-04-02T06:19:56.489Z,14.00
2023-04-02T06:25:06.402Z,12.88
2023-04-02T06:30:26.512Z,24.00
2023-04-02T06:35:29.603Z,18.50
2023-04-02T06:40:52.808Z,16.85
2023-04-02T06:46:51.803Z,7.80
2023-04-02T06:51:56.816Z,4.82
2023-04-02T06:57:00.884Z,6.50
2023-04-02T07:02:40.140Z,5.45
2023-04-02T07:07:46.290Z,13.35
2023-04-02T07:12:49.938Z,5.73
2023-04-02T07:17:53.581Z,5.22
2023-04-02T07:22:57.333Z,6.73
2023-04-02T07:27:59.955Z,4.40
2023-04-02T07:33:02.524Z,6.03
2023-04-02T07:38:04.995Z,4.33
2023-04-02T07:43:07.817Z,5.10
2023-04-02T07:48:14.340Z,5.30
2023-04-02T07:53:32.517Z,4.60
2023-04-02T07:58:34.990Z,5.90
2023-04-02T08:03:37.654Z,6.05
2023-04-02T08:08:40.700Z,6.27
2023-04-02T08:13:43.563Z,5.10
2023-04-02T08:18:47.947Z,7.97
2023-04-02T08:23:50.762Z,7.20
2023-04-02T08:28:53.315Z,7.82
2023-04-02T08:33:57.090Z,8.10
2023-04-02T08:38:59.733Z,6.23
2023-04-02T08:44:32.620Z,7.78
2023-04-02T08:50:16.624Z,4.17
2023-04-02T08:55:26.270Z,5.60
2023-04-02T09:00:49.538Z,8.32
2023-04-02T09:05:52.961Z,7.13
2023-04-02T09:11:08.828Z,4.03
2023-04-02T09:16:15.025Z,4.10
2023-04-02T09:21:32.543Z,4.53
2023-04-02T09:26:35.340Z,3.97
2023-04-02T09:31:45.402Z,3.88
2023-04-02T09:36:48.193Z,6.75
2023-04-02T09:42:02.814Z,5.43
2023-04-02T09:47:25.380Z,4.25
2023-04-02T09:52:30.095Z,4.17
2023-04-02T09:57:33.665Z,4.33
2023-04-02T10:02:37.101Z,6.78
2023-04-02T10:07:46.170Z,4.57
2023-04-02T10:13:00.425Z,5.07
2023-04-02T10:18:35.302Z,4.75
2023-04-02T10:23:37.769Z,3.40
2023-04-02T10:29:28.095Z,6.60
2023-04-02T10:34:54.541Z,4.80
2023-04-02T10:40:34.296Z,5.70
2023-04-02T10:46:02.555Z,4.67
2023-04-02T10:51:21.950Z,5.05
2023-04-02T10:56:26.574Z,5.43
2023-04-02T11:01:31.296Z,6.33
2023-04-02T11:06:43.563Z,6.63
2023-04-02T11:11:51.647Z,5.53
2023-04-02T11:16:58.813Z,5.33
2023-04-02T11:22:14.160Z,5.17
2023-04-02T11:27:33.886Z,4.63
2023-04-02T11:32:45.467Z,5.07
2023-04-02T11:43:32.926Z,6.82
2023-04-02T11:48:36.804Z,6.93
2023-04-02T11:53:43.229Z,6.63
2023-04-02T11:59:00.648Z,5.47
2023-04-02T12:04:24.038Z,4.75
2023-04-02T12:09:28.248Z,8.00
2023-04-02T12:14:38.656Z,6.53
2023-04-02T12:19:41.581Z,4.70
2023-04-02T12:24:48.595Z,5.38
2023-04-02T12:29:52.536Z,5.80
2023-04-02T12:34:57.880Z,5.82
2023-04-02T12:40:07.498Z,6.72
2023-04-02T12:45:29.819Z,6.57
2023-04-02T12:50:34.228Z,6.72
2023-04-02T12:55:37.201Z,6.88
2023-04-02T13:00:40.191Z,5.33
2023-04-02T13:05:51.171Z,6.97
2023-04-02T13:11:02.170Z,6.43
2023-04-02T13:16:16.143Z,5.03
2023-04-02T13:21:21.502Z,7.30
2023-04-02T13:26:27.385Z,10.10
2023-04-02T13:31:31.728Z,4.28
2023-04-02T13:36:34.424Z,6.47
2023-04-02T13:41:48.958Z,5.90
2023-04-02T13:46:52.788Z,6.63
2023-04-02T13:52:00.576Z,9.13
2023-04-02T13:57:03.559Z,5.03
2023-04-02T14:02:17.414Z,6.05
2023-04-02T14:08:04.387Z,8.35
2023-04-02T14:13:33.854Z,7.53
2023-04-02T14:18:55.105Z,6.20
2023-04-02T14:24:09.768Z,10.43
2023-04-02T14:29:16.687Z,5.40
2023-04-02T14:34:58.407Z,8.70
2023-04-02T14:40:23.920Z,7.30
2023-04-02T14:45:58.188Z,5.80
2023-04-02T14:51:17.822Z,6.87
2023-04-02T14:56:22.226Z,10.13
2023-04-02T15:01:34.552Z,9.52
2023-04-02T15:06:52.801Z,11.30
2023-04-02T15:12:03.897Z,7.28
2023-04-02T15:22:43.933Z,9.90
2023-04-02T15:27:52.874Z,5.80
2023-04-02T15:33:16.831Z,9.65
2023-04-02T15:38:42.923Z,5.87
2023-04-02T15:43:57.811Z,7.40
2023-04-02T15:49:09.416Z,6.93
2023-04-02T15:54:27.956Z,8.03
2023-04-02T15:59:54.640Z,8.82
2023-04-02T16:05:18.973Z,13.73
2023-04-02T16:10:41.850Z,8.18
2023-04-02T16:15:56.302Z,8.93
2023-04-02T16:21:03.203Z,8.03
2023-04-02T16:26:39.626Z,8.02
2023-04-02T16:31:55.622Z,7.03
2023-04-02T16:37:11.046Z,10.02
2023-04-02T16:42:43.562Z,8.38
2023-04-02T16:48:00.480Z,10.30
2023-04-02T16:53:18.543Z,9.02
2023-04-02T16:58:49.308Z,10.43
2023-04-02T17:04:15.027Z,8.15
2023-04-02T17:09:39.189Z,12.00
2023-04-02T17:14:57.868Z,8.17
2023-04-02T17:20:02.103Z,7.30
2023-04-02T17:25:07.886Z,7.80
2023-04-02T17:30:39.458Z,10.75
2023-04-02T17:35:51.189Z,11.93
2023-04-02T17:41:05.981Z,7.60
2023-04-02T17:46:17.929Z,7.85
2023-04-02T17:51:25.789Z,10.70
2023-04-02T17:56:39.351Z,5.93
2023-04-02T18:01:55.466Z,7.65
2023-04-02T18:07:39.688Z,7.90
2023-04-02T18:12:58.382Z,8.73
2023-04-02T18:18:19.291Z,9.53
2023-04-02T18:23:56.761Z,8.40
2023-04-02T18:29:21.026Z,12.27
2023-04-02T18:34:40.415Z,14.17
2023-04-02T18:40:03.771Z,13.45
2023-04-02T18:45:14.860Z,15.67
2023-04-02T18:50:29.677Z,17.05
2023-04-02T18:55:32.633Z,20.23
2023-04-02T19:00:39.387Z,27.13
2023-04-02T19:05:49.802Z,27.30
2023-04-02T19:10:58.183Z,24.07
2023-04-02T19:16:31.537Z,16.60
2023-04-02T19:21:40.263Z,12.82
2023-04-02T19:26:55.482Z,10.60
2023-04-02T19:32:07.087Z,11.70
2023-04-02T19:37:36.890Z,17.43
2023-04-02T19:42:51.815Z,11.00
2023-04-02T19:47:55.717Z,13.73
2023-04-02T19:52:58.726Z,13.40
2023-04-02T19:58:17.343Z,12.77
2023-04-02T20:03:22.530Z,11.83
2023-04-02T20:08:25.159Z,14.10
2023-04-02T20:13:28.076Z,11.38
2023-04-02T20:18:32.744Z,10.33
2023-04-02T20:23:36.555Z,10.65
2023-04-02T20:28:39.497Z,9.03
2023-04-02T20:33:42.783Z,9.88
2023-04-02T20:38:45.966Z,6.60
2023-04-02T20:43:50.131Z,8.60
2023-04-02T20:48:53.021Z,11.52
2023-04-02T20:53:55.878Z,13.57
2023-04-02T20:58:58.430Z,9.00
2023-04-02T21:04:04.212Z,7.47
2023-04-02T21:09:09.548Z,8.80
2023-04-02T21:14:12.499Z,9.90
2023-04-02T21:19:15.066Z,8.70
2023-04-02T21:24:17.537Z,10.05
2023-04-02T21:29:20.392Z,7.45
2023-04-02T21:34:23.016Z,7.97
2023-04-02T21:39:26.110Z,9.52
2023-04-02T21:44:28.779Z,8.47
2023-04-02T21:49:34.414Z,8.00
2023-04-02T21:54:36.831Z,9.23
2023-04-02T21:59:39.215Z,12.67
2023-04-02T22:04:42.209Z,7.85
2023-04-02T22:09:44.733Z,7.63
2023-04-02T22:14:47.724Z,12.05
2023-04-02T22:19:50.517Z,11.35
2023-04-02T22:24:52.946Z,10.53
2023-04-02T22:29:55.598Z,18.52
2023-04-02T22:35:00.461Z,16.13
2023-04-02T22:40:03.107Z,17.95
2023-04-02T22:45:06.750Z,22.85
2023-04-02T22:50:09.692Z,18.53
2023-04-02T22:55:18.245Z,17.00
2023-04-02T23:00:21.201Z,18.73
2023-04-02T23:05:23.834Z,24.30
2023-04-02T23:10:28.841Z,25.58
2023-04-02T23:15:33.094Z,23.07
2023-04-02T23:20:35.835Z,20.83
2023-04-02T23:25:38.634Z,24.47
2023-04-02T23:30:44.702Z,23.98
2023-04-02T23:35:47.419Z,21.88
2023-04-02T23:40:49.877Z,26.63
2023-04-02T23:45:52.451Z,29.67
2023-04-02T23:50:54.979Z,37.83
2023-04-02T23:55:57.900Z,46.58
